sensor_id;sensor_type;location;lat;lon;timestamp;temperature;humidity
43858;DHT22;29507;51.284;5.758;2023-07-31T00:00:11;16.10;99.90
43858;DHT22;29507;51.284;5.758;2023-07-31T00:02:37;16.20;99.90
43858;DHT22;29507;51.284;5.758;2023-07-31T00:05:02;16.20;99.90
43858;DHT22;29507;51.284;5.758;2023-07-31T00:07:28;16.20;99.90
43858;DHT22;29507;51.284;5.758;2023-07-31T00:09:54;16.20;99.90
43858;DHT22;29507;51.284;5.758;2023-07-31T00:12:22;16.20;99.90
43858;DHT22;29507;51.284;5.758;2023-07-31T00:14:48;16.20;99.90
43858;DHT22;29507;51.284;5.758;2023-07-31T00:17:14;16.20;99.90
43858;DHT22;29507;51.284;5.758;2023-07-31T00:19:39;16.20;99.90
43858;DHT22;29507;51.284;5.758;2023-07-31T00:22:05;16.20;99.90
43858;DHT22;29507;51.284;5.758;2023-07-31T00:24:31;16.20;99.90
43858;DHT22;29507;51.284;5.758;2023-07-31T00:26:57;16.20;99.90
43858;DHT22;29507;51.284;5.758;2023-07-31T00:29:22;16.20;99.90
43858;DHT22;29507;51.284;5.758;2023-07-31T00:31:48;16.20;99.90
43858;DHT22;29507;51.284;5.758;2023-07-31T00:34:14;16.20;99.90
43858;DHT22;29507;51.284;5.758;2023-07-31T00:36:39;16.10;99.90
43858;DHT22;29507;51.284;5.758;2023-07-31T00:39:05;16.20;99.90
43858;DHT22;29507;51.284;5.758;2023-07-31T00:41:31;16.20;99.90
43858;DHT22;29507;51.284;5.758;2023-07-31T00:43:56;16.20;99.90
43858;DHT22;29507;51.284;5.758;2023-07-31T00:46:22;16.20;99.90
43858;DHT22;29507;51.284;5.758;2023-07-31T00:48:49;16.20;99.90
43858;DHT22;29507;51.284;5.758;2023-07-31T00:51:14;16.20;99.90
43858;DHT22;29507;51.284;5.758;2023-07-31T00:53:41;16.20;99.90
43858;DHT22;29507;51.284;5.758;2023-07-31T00:56:07;16.20;99.90
43858;DHT22;29507;51.284;5.758;2023-07-31T00:58:33;16.20;99.90
43858;DHT22;29507;51.284;5.758;2023-07-31T01:00:58;16.20;99.90
43858;DHT22;29507;51.284;5.758;2023-07-31T01:03:24;16.20;99.90
43858;DHT22;29507;51.284;5.758;2023-07-31T01:06:15;16.20;99.90
43858;DHT22;29507;51.284;5.758;2023-07-31T01:09:00;16.20;99.90
43858;DHT22;29507;51.284;5.758;2023-07-31T01:11:30;16.20;99.90
43858;DHT22;29507;51.284;5.758;2023-07-31T01:13:56;16.20;99.90
43858;DHT22;29507;51.284;5.758;2023-07-31T01:16:22;16.20;99.90
43858;DHT22;29507;51.284;5.758;2023-07-31T01:18:48;16.20;99.90
43858;DHT22;29507;51.284;5.758;2023-07-31T01:26:39;16.20;99.90
43858;DHT22;29507;51.284;5.758;2023-07-31T01:29:24;16.10;99.90
43858;DHT22;29507;51.284;5.758;2023-07-31T01:31:53;16.10;99.90
43858;DHT22;29507;51.284;5.758;2023-07-31T01:34:19;16.20;99.90
43858;DHT22;29507;51.284;5.758;2023-07-31T01:36:46;16.10;99.90
43858;DHT22;29507;51.284;5.758;2023-07-31T01:39:11;16.20;99.90
43858;DHT22;29507;51.284;5.758;2023-07-31T01:41:37;16.20;99.90
43858;DHT22;29507;51.284;5.758;2023-07-31T01:44:02;16.20;99.90
43858;DHT22;29507;51.284;5.758;2023-07-31T01:46:28;16.10;99.90
43858;DHT22;29507;51.284;5.758;2023-07-31T01:48:54;16.10;99.90
43858;DHT22;29507;51.284;5.758;2023-07-31T01:51:19;16.10;99.90
43858;DHT22;29507;51.284;5.758;2023-07-31T01:53:45;16.00;99.90
43858;DHT22;29507;51.284;5.758;2023-07-31T01:56:11;16.10;99.90
43858;DHT22;29507;51.284;5.758;2023-07-31T01:58:36;16.10;99.90
43858;DHT22;29507;51.284;5.758;2023-07-31T02:01:02;16.20;99.90
43858;DHT22;29507;51.284;5.758;2023-07-31T02:03:28;16.20;99.90
43858;DHT22;29507;51.284;5.758;2023-07-31T02:05:54;16.20;99.90
43858;DHT22;29507;51.284;5.758;2023-07-31T02:08:20;16.20;99.90
43858;DHT22;29507;51.284;5.758;2023-07-31T02:10:45;16.20;99.90
43858;DHT22;29507;51.284;5.758;2023-07-31T02:13:11;16.20;99.90
43858;DHT22;29507;51.284;5.758;2023-07-31T02:15:36;16.20;99.90
43858;DHT22;29507;51.284;5.758;2023-07-31T02:18:02;16.20;99.90
43858;DHT22;29507;51.284;5.758;2023-07-31T02:20:28;16.20;99.90
43858;DHT22;29507;51.284;5.758;2023-07-31T02:22:54;16.20;99.90
43858;DHT22;29507;51.284;5.758;2023-07-31T02:25:19;16.20;99.90
43858;DHT22;29507;51.284;5.758;2023-07-31T02:27:45;16.20;99.90
43858;DHT22;29507;51.284;5.758;2023-07-31T02:30:11;16.20;99.90
43858;DHT22;29507;51.284;5.758;2023-07-31T02:32:36;16.20;99.90
43858;DHT22;29507;51.284;5.758;2023-07-31T02:35:02;16.30;99.90
43858;DHT22;29507;51.284;5.758;2023-07-31T02:37:28;16.30;99.90
43858;DHT22;29507;51.284;5.758;2023-07-31T02:39:54;16.40;99.90
43858;DHT22;29507;51.284;5.758;2023-07-31T02:42:20;16.40;99.90
43858;DHT22;29507;51.284;5.758;2023-07-31T02:44:46;16.40;99.90
43858;DHT22;29507;51.284;5.758;2023-07-31T02:47:11;16.30;99.90
43858;DHT22;29507;51.284;5.758;2023-07-31T02:49:37;16.30;99.90
43858;DHT22;29507;51.284;5.758;2023-07-31T02:52:03;16.30;99.90
43858;DHT22;29507;51.284;5.758;2023-07-31T02:54:28;16.40;99.90
43858;DHT22;29507;51.284;5.758;2023-07-31T02:56:54;16.30;99.90
43858;DHT22;29507;51.284;5.758;2023-07-31T02:59:20;16.40;99.90
43858;DHT22;29507;51.284;5.758;2023-07-31T03:01:45;16.40;99.90
43858;DHT22;29507;51.284;5.758;2023-07-31T03:04:11;16.40;99.90
43858;DHT22;29507;51.284;5.758;2023-07-31T03:06:37;16.40;99.90
43858;DHT22;29507;51.284;5.758;2023-07-31T03:09:03;16.50;99.90
43858;DHT22;29507;51.284;5.758;2023-07-31T03:11:28;16.50;99.90
43858;DHT22;29507;51.284;5.758;2023-07-31T03:13:54;16.60;99.90
43858;DHT22;29507;51.284;5.758;2023-07-31T03:16:19;16.60;99.90
43858;DHT22;29507;51.284;5.758;2023-07-31T03:18:45;16.60;99.90
43858;DHT22;29507;51.284;5.758;2023-07-31T03:21:11;16.60;99.90
43858;DHT22;29507;51.284;5.758;2023-07-31T03:23:37;16.60;99.90
43858;DHT22;29507;51.284;5.758;2023-07-31T03:26:07;16.70;99.90
43858;DHT22;29507;51.284;5.758;2023-07-31T03:28:32;16.70;99.90
43858;DHT22;29507;51.284;5.758;2023-07-31T03:30:58;16.70;99.90
43858;DHT22;29507;51.284;5.758;2023-07-31T03:33:24;16.60;99.90
43858;DHT22;29507;51.284;5.758;2023-07-31T03:35:50;16.60;99.90
43858;DHT22;29507;51.284;5.758;2023-07-31T03:38:16;16.60;99.90
43858;DHT22;29507;51.284;5.758;2023-07-31T03:40:41;16.60;99.90
43858;DHT22;29507;51.284;5.758;2023-07-31T03:43:07;16.60;99.90
43858;DHT22;29507;51.284;5.758;2023-07-31T03:45:33;16.50;99.90
43858;DHT22;29507;51.284;5.758;2023-07-31T03:47:58;16.50;99.90
43858;DHT22;29507;51.284;5.758;2023-07-31T03:50:24;16.50;99.90
43858;DHT22;29507;51.284;5.758;2023-07-31T03:52:50;16.50;99.90
43858;DHT22;29507;51.284;5.758;2023-07-31T03:55:16;16.50;99.90
43858;DHT22;29507;51.284;5.758;2023-07-31T03:57:42;16.50;99.90
43858;DHT22;29507;51.284;5.758;2023-07-31T04:00:08;16.50;99.90
43858;DHT22;29507;51.284;5.758;2023-07-31T04:02:33;16.50;99.90
43858;DHT22;29507;51.284;5.758;2023-07-31T04:04:59;16.60;99.90
43858;DHT22;29507;51.284;5.758;2023-07-31T04:07:25;16.50;99.90
43858;DHT22;29507;51.284;5.758;2023-07-31T04:09:50;16.60;99.90
43858;DHT22;29507;51.284;5.758;2023-07-31T04:12:16;16.60;99.90
43858;DHT22;29507;51.284;5.758;2023-07-31T04:14:41;16.60;99.90
43858;DHT22;29507;51.284;5.758;2023-07-31T04:17:07;16.60;99.90
43858;DHT22;29507;51.284;5.758;2023-07-31T04:19:33;16.60;99.90
43858;DHT22;29507;51.284;5.758;2023-07-31T04:21:58;16.60;99.90
43858;DHT22;29507;51.284;5.758;2023-07-31T04:24:24;16.60;99.90
43858;DHT22;29507;51.284;5.758;2023-07-31T04:26:50;16.70;99.90
43858;DHT22;29507;51.284;5.758;2023-07-31T04:29:16;16.60;99.90
43858;DHT22;29507;51.284;5.758;2023-07-31T04:31:42;16.70;99.90
43858;DHT22;29507;51.284;5.758;2023-07-31T04:34:07;16.70;99.90
43858;DHT22;29507;51.284;5.758;2023-07-31T04:36:34;16.80;99.90
43858;DHT22;29507;51.284;5.758;2023-07-31T04:39:00;16.80;99.90
43858;DHT22;29507;51.284;5.758;2023-07-31T04:41:26;16.80;99.90
43858;DHT22;29507;51.284;5.758;2023-07-31T04:43:52;16.80;99.90
43858;DHT22;29507;51.284;5.758;2023-07-31T04:46:17;16.80;99.90
43858;DHT22;29507;51.284;5.758;2023-07-31T04:48:43;16.80;99.90
43858;DHT22;29507;51.284;5.758;2023-07-31T04:51:09;16.80;99.90
43858;DHT22;29507;51.284;5.758;2023-07-31T04:53:35;16.80;99.90
43858;DHT22;29507;51.284;5.758;2023-07-31T04:56:01;16.70;99.90
43858;DHT22;29507;51.284;5.758;2023-07-31T04:58:27;16.60;99.90
43858;DHT22;29507;51.284;5.758;2023-07-31T05:00:52;16.50;99.90
43858;DHT22;29507;51.284;5.758;2023-07-31T05:03:18;16.50;99.90
43858;DHT22;29507;51.284;5.758;2023-07-31T05:05:43;16.50;99.90
43858;DHT22;29507;51.284;5.758;2023-07-31T05:08:09;16.50;99.90
43858;DHT22;29507;51.284;5.758;2023-07-31T05:10:35;16.40;99.90
43858;DHT22;29507;51.284;5.758;2023-07-31T05:13:00;16.30;99.90
43858;DHT22;29507;51.284;5.758;2023-07-31T05:15:26;16.30;99.90
43858;DHT22;29507;51.284;5.758;2023-07-31T05:17:52;16.20;99.90
43858;DHT22;29507;51.284;5.758;2023-07-31T05:20:17;16.10;99.90
43858;DHT22;29507;51.284;5.758;2023-07-31T05:22:43;16.20;99.90
43858;DHT22;29507;51.284;5.758;2023-07-31T05:25:09;16.10;99.90
43858;DHT22;29507;51.284;5.758;2023-07-31T05:27:34;16.10;99.90
43858;DHT22;29507;51.284;5.758;2023-07-31T05:30:00;16.00;99.90
43858;DHT22;29507;51.284;5.758;2023-07-31T05:32:26;16.00;99.90
43858;DHT22;29507;51.284;5.758;2023-07-31T05:34:52;16.00;99.90
43858;DHT22;29507;51.284;5.758;2023-07-31T05:37:18;15.90;99.90
43858;DHT22;29507;51.284;5.758;2023-07-31T05:39:44;16.00;99.90
43858;DHT22;29507;51.284;5.758;2023-07-31T05:42:10;15.90;99.90
43858;DHT22;29507;51.284;5.758;2023-07-31T05:44:38;15.90;99.90
43858;DHT22;29507;51.284;5.758;2023-07-31T05:47:04;16.00;99.90
43858;DHT22;29507;51.284;5.758;2023-07-31T05:49:30;15.90;99.90
43858;DHT22;29507;51.284;5.758;2023-07-31T05:51:55;16.00;99.90
43858;DHT22;29507;51.284;5.758;2023-07-31T05:54:21;16.00;99.90
43858;DHT22;29507;51.284;5.758;2023-07-31T05:56:47;16.00;99.90
43858;DHT22;29507;51.284;5.758;2023-07-31T05:59:12;16.10;99.90
43858;DHT22;29507;51.284;5.758;2023-07-31T06:01:39;16.10;99.90
43858;DHT22;29507;51.284;5.758;2023-07-31T06:04:04;16.10;99.90
43858;DHT22;29507;51.284;5.758;2023-07-31T06:06:30;16.10;99.90
43858;DHT22;29507;51.284;5.758;2023-07-31T06:08:56;16.00;99.90
43858;DHT22;29507;51.284;5.758;2023-07-31T06:11:22;16.00;99.90
43858;DHT22;29507;51.284;5.758;2023-07-31T06:13:48;16.00;99.90
43858;DHT22;29507;51.284;5.758;2023-07-31T06:16:14;15.90;99.90
43858;DHT22;29507;51.284;5.758;2023-07-31T06:18:41;15.90;99.90
43858;DHT22;29507;51.284;5.758;2023-07-31T06:21:07;15.90;99.90
43858;DHT22;29507;51.284;5.758;2023-07-31T06:23:33;15.90;99.90
43858;DHT22;29507;51.284;5.758;2023-07-31T06:25:58;15.90;99.90
43858;DHT22;29507;51.284;5.758;2023-07-31T06:28:28;15.80;99.90
43858;DHT22;29507;51.284;5.758;2023-07-31T06:30:58;15.80;99.90
43858;DHT22;29507;51.284;5.758;2023-07-31T06:33:24;15.80;99.90
43858;DHT22;29507;51.284;5.758;2023-07-31T06:35:50;15.70;99.90
43858;DHT22;29507;51.284;5.758;2023-07-31T06:38:18;15.80;99.90
43858;DHT22;29507;51.284;5.758;2023-07-31T06:40:44;15.80;99.90
43858;DHT22;29507;51.284;5.758;2023-07-31T06:43:09;15.80;99.90
43858;DHT22;29507;51.284;5.758;2023-07-31T06:45:36;15.70;99.90
43858;DHT22;29507;51.284;5.758;2023-07-31T06:48:03;15.80;99.90
43858;DHT22;29507;51.284;5.758;2023-07-31T06:50:30;15.80;99.90
43858;DHT22;29507;51.284;5.758;2023-07-31T06:52:55;15.80;99.90
43858;DHT22;29507;51.284;5.758;2023-07-31T06:55:23;15.80;99.90
43858;DHT22;29507;51.284;5.758;2023-07-31T06:57:53;15.80;99.90
43858;DHT22;29507;51.284;5.758;2023-07-31T07:00:20;15.80;99.90
43858;DHT22;29507;51.284;5.758;2023-07-31T07:02:47;15.80;99.90
43858;DHT22;29507;51.284;5.758;2023-07-31T07:05:13;15.80;99.90
43858;DHT22;29507;51.284;5.758;2023-07-31T07:07:40;15.80;99.90
43858;DHT22;29507;51.284;5.758;2023-07-31T07:10:06;15.70;99.90
43858;DHT22;29507;51.284;5.758;2023-07-31T07:12:33;15.80;99.90
43858;DHT22;29507;51.284;5.758;2023-07-31T07:14:59;15.80;99.90
43858;DHT22;29507;51.284;5.758;2023-07-31T07:17:26;15.80;99.90
43858;DHT22;29507;51.284;5.758;2023-07-31T07:19:52;15.80;99.90
43858;DHT22;29507;51.284;5.758;2023-07-31T07:22:18;15.80;99.90
43858;DHT22;29507;51.284;5.758;2023-07-31T07:24:44;15.90;99.90
43858;DHT22;29507;51.284;5.758;2023-07-31T07:27:10;15.80;99.90
43858;DHT22;29507;51.284;5.758;2023-07-31T07:29:37;15.80;99.90
43858;DHT22;29507;51.284;5.758;2023-07-31T07:32:03;15.80;99.90
43858;DHT22;29507;51.284;5.758;2023-07-31T07:34:29;15.90;99.90
43858;DHT22;29507;51.284;5.758;2023-07-31T07:36:55;15.90;99.90
43858;DHT22;29507;51.284;5.758;2023-07-31T07:39:21;16.10;99.90
43858;DHT22;29507;51.284;5.758;2023-07-31T07:41:47;16.20;99.90
43858;DHT22;29507;51.284;5.758;2023-07-31T07:44:13;16.20;99.90
43858;DHT22;29507;51.284;5.758;2023-07-31T07:46:39;16.20;99.90
43858;DHT22;29507;51.284;5.758;2023-07-31T07:49:05;16.10;99.90
43858;DHT22;29507;51.284;5.758;2023-07-31T07:51:31;16.10;99.90
43858;DHT22;29507;51.284;5.758;2023-07-31T07:53:58;16.10;99.90
43858;DHT22;29507;51.284;5.758;2023-07-31T07:56:25;16.10;99.90
43858;DHT22;29507;51.284;5.758;2023-07-31T07:58:51;16.10;99.90
43858;DHT22;29507;51.284;5.758;2023-07-31T08:01:17;16.10;99.90
43858;DHT22;29507;51.284;5.758;2023-07-31T08:03:42;16.10;99.90
43858;DHT22;29507;51.284;5.758;2023-07-31T08:06:09;16.10;99.90
43858;DHT22;29507;51.284;5.758;2023-07-31T08:08:35;16.00;99.90
43858;DHT22;29507;51.284;5.758;2023-07-31T08:11:01;16.00;99.90
43858;DHT22;29507;51.284;5.758;2023-07-31T08:13:27;16.00;99.90
43858;DHT22;29507;51.284;5.758;2023-07-31T08:15:53;16.20;99.90
43858;DHT22;29507;51.284;5.758;2023-07-31T08:18:19;16.30;99.90
43858;DHT22;29507;51.284;5.758;2023-07-31T08:20:44;16.30;99.90
43858;DHT22;29507;51.284;5.758;2023-07-31T08:23:10;16.30;99.90
43858;DHT22;29507;51.284;5.758;2023-07-31T08:25:36;16.20;99.90
43858;DHT22;29507;51.284;5.758;2023-07-31T08:28:03;16.20;99.90
43858;DHT22;29507;51.284;5.758;2023-07-31T08:30:29;16.10;99.90
43858;DHT22;29507;51.284;5.758;2023-07-31T08:32:54;16.10;99.90
43858;DHT22;29507;51.284;5.758;2023-07-31T08:35:20;16.20;99.90
43858;DHT22;29507;51.284;5.758;2023-07-31T08:37:46;16.10;99.90
43858;DHT22;29507;51.284;5.758;2023-07-31T08:40:11;16.10;99.90
43858;DHT22;29507;51.284;5.758;2023-07-31T08:42:44;16.20;99.90
43858;DHT22;29507;51.284;5.758;2023-07-31T08:45:14;16.20;99.90
43858;DHT22;29507;51.284;5.758;2023-07-31T08:47:42;16.20;99.90
43858;DHT22;29507;51.284;5.758;2023-07-31T08:50:08;16.20;99.90
43858;DHT22;29507;51.284;5.758;2023-07-31T08:52:34;16.20;99.90
43858;DHT22;29507;51.284;5.758;2023-07-31T08:54:59;16.20;99.90
43858;DHT22;29507;51.284;5.758;2023-07-31T08:57:25;16.10;99.90
43858;DHT22;29507;51.284;5.758;2023-07-31T08:59:51;16.10;99.90
43858;DHT22;29507;51.284;5.758;2023-07-31T09:02:19;16.10;99.90
43858;DHT22;29507;51.284;5.758;2023-07-31T09:04:45;16.20;99.90
43858;DHT22;29507;51.284;5.758;2023-07-31T09:07:12;16.30;99.90
43858;DHT22;29507;51.284;5.758;2023-07-31T09:09:39;16.40;99.90
43858;DHT22;29507;51.284;5.758;2023-07-31T09:12:05;16.50;99.90
43858;DHT22;29507;51.284;5.758;2023-07-31T09:14:32;16.70;99.90
43858;DHT22;29507;51.284;5.758;2023-07-31T09:16:58;16.80;99.90
43858;DHT22;29507;51.284;5.758;2023-07-31T09:19:31;16.80;99.90
43858;DHT22;29507;51.284;5.758;2023-07-31T09:21:59;16.90;99.90
43858;DHT22;29507;51.284;5.758;2023-07-31T09:24:26;17.00;99.90
43858;DHT22;29507;51.284;5.758;2023-07-31T09:26:54;17.20;99.90
43858;DHT22;29507;51.284;5.758;2023-07-31T09:29:20;17.40;99.90
43858;DHT22;29507;51.284;5.758;2023-07-31T09:31:46;17.40;99.90
43858;DHT22;29507;51.284;5.758;2023-07-31T09:34:12;17.50;99.90
43858;DHT22;29507;51.284;5.758;2023-07-31T09:36:47;17.50;99.90
43858;DHT22;29507;51.284;5.758;2023-07-31T09:39:13;17.70;99.90
43858;DHT22;29507;51.284;5.758;2023-07-31T09:41:43;17.70;99.90
43858;DHT22;29507;51.284;5.758;2023-07-31T09:44:10;17.90;99.90
43858;DHT22;29507;51.284;5.758;2023-07-31T09:46:39;18.10;99.90
43858;DHT22;29507;51.284;5.758;2023-07-31T09:51:31;18.20;99.90
43858;DHT22;29507;51.284;5.758;2023-07-31T09:53:56;18.30;99.90
43858;DHT22;29507;51.284;5.758;2023-07-31T09:56:23;18.30;99.90
43858;DHT22;29507;51.284;5.758;2023-07-31T09:58:49;18.40;99.90
43858;DHT22;29507;51.284;5.758;2023-07-31T10:01:15;18.50;99.90
43858;DHT22;29507;51.284;5.758;2023-07-31T10:03:42;18.70;99.90
43858;DHT22;29507;51.284;5.758;2023-07-31T10:06:10;18.70;99.90
43858;DHT22;29507;51.284;5.758;2023-07-31T10:08:36;18.60;99.90
43858;DHT22;29507;51.284;5.758;2023-07-31T10:11:03;18.50;99.90
43858;DHT22;29507;51.284;5.758;2023-07-31T10:13:30;18.50;99.90
43858;DHT22;29507;51.284;5.758;2023-07-31T10:15:59;18.40;99.90
43858;DHT22;29507;51.284;5.758;2023-07-31T10:18:26;18.20;99.90
43858;DHT22;29507;51.284;5.758;2023-07-31T10:20:53;18.10;99.90
43858;DHT22;29507;51.284;5.758;2023-07-31T10:23:20;18.00;99.90
43858;DHT22;29507;51.284;5.758;2023-07-31T10:25:47;18.10;99.90
43858;DHT22;29507;51.284;5.758;2023-07-31T10:28:14;18.10;99.90
43858;DHT22;29507;51.284;5.758;2023-07-31T10:30:39;18.30;99.90
43858;DHT22;29507;51.284;5.758;2023-07-31T10:33:07;18.40;99.90
43858;DHT22;29507;51.284;5.758;2023-07-31T10:35:33;18.40;99.90
43858;DHT22;29507;51.284;5.758;2023-07-31T10:38:25;18.40;99.90
43858;DHT22;29507;51.284;5.758;2023-07-31T10:40:50;18.40;99.90
43858;DHT22;29507;51.284;5.758;2023-07-31T10:43:25;18.30;99.90
43858;DHT22;29507;51.284;5.758;2023-07-31T10:45:55;18.30;99.90
43858;DHT22;29507;51.284;5.758;2023-07-31T10:48:21;18.40;99.90
43858;DHT22;29507;51.284;5.758;2023-07-31T10:50:55;18.40;99.90
43858;DHT22;29507;51.284;5.758;2023-07-31T10:53:32;18.50;99.90
43858;DHT22;29507;51.284;5.758;2023-07-31T10:55:59;18.40;99.90
43858;DHT22;29507;51.284;5.758;2023-07-31T10:58:25;18.40;99.90
43858;DHT22;29507;51.284;5.758;2023-07-31T11:00:55;18.50;99.90
43858;DHT22;29507;51.284;5.758;2023-07-31T11:03:40;18.60;99.90
43858;DHT22;29507;51.284;5.758;2023-07-31T11:06:07;18.70;99.90
43858;DHT22;29507;51.284;5.758;2023-07-31T11:08:34;18.90;99.90
43858;DHT22;29507;51.284;5.758;2023-07-31T11:13:32;18.90;99.90
43858;DHT22;29507;51.284;5.758;2023-07-31T11:15:59;18.90;99.90
43858;DHT22;29507;51.284;5.758;2023-07-31T11:18:26;18.90;99.90
43858;DHT22;29507;51.284;5.758;2023-07-31T11:20:52;18.90;99.90
43858;DHT22;29507;51.284;5.758;2023-07-31T11:23:19;18.80;99.90
43858;DHT22;29507;51.284;5.758;2023-07-31T11:25:45;18.80;99.90
43858;DHT22;29507;51.284;5.758;2023-07-31T11:28:13;18.80;99.90
43858;DHT22;29507;51.284;5.758;2023-07-31T11:30:40;18.90;99.90
43858;DHT22;29507;51.284;5.758;2023-07-31T11:33:09;18.90;99.90
43858;DHT22;29507;51.284;5.758;2023-07-31T11:35:41;19.00;99.90
43858;DHT22;29507;51.284;5.758;2023-07-31T11:38:07;19.00;99.90
43858;DHT22;29507;51.284;5.758;2023-07-31T11:40:43;19.20;99.90
43858;DHT22;29507;51.284;5.758;2023-07-31T11:43:09;19.40;99.90
43858;DHT22;29507;51.284;5.758;2023-07-31T11:45:35;19.50;99.90
43858;DHT22;29507;51.284;5.758;2023-07-31T11:48:01;19.60;99.90
43858;DHT22;29507;51.284;5.758;2023-07-31T11:50:27;19.60;99.90
43858;DHT22;29507;51.284;5.758;2023-07-31T11:53:03;19.50;99.90
43858;DHT22;29507;51.284;5.758;2023-07-31T11:55:30;19.60;99.90
43858;DHT22;29507;51.284;5.758;2023-07-31T11:57:57;19.70;99.90
43858;DHT22;29507;51.284;5.758;2023-07-31T12:00:25;19.70;99.90
43858;DHT22;29507;51.284;5.758;2023-07-31T12:02:51;19.70;99.90
43858;DHT22;29507;51.284;5.758;2023-07-31T12:05:17;19.70;99.90
43858;DHT22;29507;51.284;5.758;2023-07-31T12:07:51;19.80;99.90
43858;DHT22;29507;51.284;5.758;2023-07-31T12:10:43;19.90;99.90
43858;DHT22;29507;51.284;5.758;2023-07-31T12:13:19;20.00;99.90
43858;DHT22;29507;51.284;5.758;2023-07-31T12:15:45;20.10;99.90
43858;DHT22;29507;51.284;5.758;2023-07-31T12:18:18;20.20;99.90
43858;DHT22;29507;51.284;5.758;2023-07-31T12:21:27;20.20;99.90
43858;DHT22;29507;51.284;5.758;2023-07-31T12:23:36;20.20;99.90
43858;DHT22;29507;51.284;5.758;2023-07-31T12:28:41;19.80;99.90
43858;DHT22;29507;51.284;5.758;2023-07-31T12:31:09;19.80;99.90
43858;DHT22;29507;51.284;5.758;2023-07-31T12:33:37;19.70;99.90
43858;DHT22;29507;51.284;5.758;2023-07-31T12:36:06;19.70;99.90
43858;DHT22;29507;51.284;5.758;2023-07-31T12:38:33;19.70;99.90
43858;DHT22;29507;51.284;5.758;2023-07-31T12:40:59;19.80;99.90
43858;DHT22;29507;51.284;5.758;2023-07-31T12:43:24;19.90;99.90
43858;DHT22;29507;51.284;5.758;2023-07-31T12:45:50;19.90;99.90
43858;DHT22;29507;51.284;5.758;2023-07-31T12:48:16;19.90;99.90
43858;DHT22;29507;51.284;5.758;2023-07-31T12:50:42;19.80;99.90
43858;DHT22;29507;51.284;5.758;2023-07-31T12:53:07;19.80;99.90
43858;DHT22;29507;51.284;5.758;2023-07-31T12:55:33;19.80;99.90
43858;DHT22;29507;51.284;5.758;2023-07-31T12:58:00;19.90;99.90
43858;DHT22;29507;51.284;5.758;2023-07-31T13:00:26;20.00;99.90
43858;DHT22;29507;51.284;5.758;2023-07-31T13:02:52;20.00;99.90
43858;DHT22;29507;51.284;5.758;2023-07-31T13:05:18;20.20;99.90
43858;DHT22;29507;51.284;5.758;2023-07-31T13:07:48;20.10;99.90
43858;DHT22;29507;51.284;5.758;2023-07-31T13:10:14;20.10;99.90
43858;DHT22;29507;51.284;5.758;2023-07-31T13:12:40;20.00;99.90
43858;DHT22;29507;51.284;5.758;2023-07-31T13:15:06;20.00;99.90
43858;DHT22;29507;51.284;5.758;2023-07-31T13:17:33;19.90;99.90
43858;DHT22;29507;51.284;5.758;2023-07-31T13:19:59;19.90;99.90
43858;DHT22;29507;51.284;5.758;2023-07-31T13:22:25;19.90;99.90
43858;DHT22;29507;51.284;5.758;2023-07-31T13:24:50;20.00;99.90
43858;DHT22;29507;51.284;5.758;2023-07-31T13:27:16;20.00;99.90
43858;DHT22;29507;51.284;5.758;2023-07-31T13:29:50;20.00;99.90
43858;DHT22;29507;51.284;5.758;2023-07-31T13:32:17;20.00;99.90
43858;DHT22;29507;51.284;5.758;2023-07-31T13:34:43;20.10;99.90
43858;DHT22;29507;51.284;5.758;2023-07-31T13:37:08;20.00;99.90
43858;DHT22;29507;51.284;5.758;2023-07-31T13:39:35;20.00;99.90
43858;DHT22;29507;51.284;5.758;2023-07-31T13:42:02;20.00;99.90
43858;DHT22;29507;51.284;5.758;2023-07-31T13:44:27;20.00;99.90
43858;DHT22;29507;51.284;5.758;2023-07-31T13:46:53;20.10;99.90
43858;DHT22;29507;51.284;5.758;2023-07-31T13:49:19;20.10;99.90
43858;DHT22;29507;51.284;5.758;2023-07-31T13:51:44;20.10;99.90
43858;DHT22;29507;51.284;5.758;2023-07-31T13:54:10;20.00;99.90
43858;DHT22;29507;51.284;5.758;2023-07-31T13:56:40;19.90;99.90
43858;DHT22;29507;51.284;5.758;2023-07-31T13:59:06;19.90;99.90
43858;DHT22;29507;51.284;5.758;2023-07-31T14:01:32;19.90;99.90
43858;DHT22;29507;51.284;5.758;2023-07-31T14:03:58;19.90;99.90
43858;DHT22;29507;51.284;5.758;2023-07-31T14:06:24;19.90;99.90
43858;DHT22;29507;51.284;5.758;2023-07-31T14:08:50;19.90;99.90
43858;DHT22;29507;51.284;5.758;2023-07-31T14:11:16;20.00;99.90
43858;DHT22;29507;51.284;5.758;2023-07-31T14:13:42;20.00;99.90
43858;DHT22;29507;51.284;5.758;2023-07-31T14:16:07;19.80;99.90
43858;DHT22;29507;51.284;5.758;2023-07-31T14:18:33;19.50;99.90
43858;DHT22;29507;51.284;5.758;2023-07-31T14:20:58;19.20;99.90
43858;DHT22;29507;51.284;5.758;2023-07-31T14:23:24;19.10;99.90
43858;DHT22;29507;51.284;5.758;2023-07-31T14:25:50;19.00;99.90
43858;DHT22;29507;51.284;5.758;2023-07-31T14:28:15;19.00;99.90
43858;DHT22;29507;51.284;5.758;2023-07-31T14:30:41;19.00;99.90
43858;DHT22;29507;51.284;5.758;2023-07-31T14:33:07;19.10;99.90
43858;DHT22;29507;51.284;5.758;2023-07-31T14:35:34;19.10;99.90
43858;DHT22;29507;51.284;5.758;2023-07-31T14:38:00;19.10;99.90
43858;DHT22;29507;51.284;5.758;2023-07-31T14:40:26;18.90;99.90
43858;DHT22;29507;51.284;5.758;2023-07-31T14:42:52;18.70;99.90
43858;DHT22;29507;51.284;5.758;2023-07-31T14:45:17;18.40;99.90
43858;DHT22;29507;51.284;5.758;2023-07-31T14:47:43;18.20;99.90
43858;DHT22;29507;51.284;5.758;2023-07-31T14:50:09;18.10;99.90
43858;DHT22;29507;51.284;5.758;2023-07-31T14:52:35;18.00;99.90
43858;DHT22;29507;51.284;5.758;2023-07-31T14:55:01;17.90;99.90
43858;DHT22;29507;51.284;5.758;2023-07-31T14:57:26;17.80;99.90
43858;DHT22;29507;51.284;5.758;2023-07-31T14:59:52;17.80;99.90
43858;DHT22;29507;51.284;5.758;2023-07-31T15:02:17;17.60;99.90
43858;DHT22;29507;51.284;5.758;2023-07-31T15:04:43;17.60;99.90
43858;DHT22;29507;51.284;5.758;2023-07-31T15:07:09;17.50;99.90
43858;DHT22;29507;51.284;5.758;2023-07-31T15:09:34;17.50;99.90
43858;DHT22;29507;51.284;5.758;2023-07-31T15:12:01;17.50;99.90
43858;DHT22;29507;51.284;5.758;2023-07-31T15:14:26;17.50;99.90
43858;DHT22;29507;51.284;5.758;2023-07-31T15:16:53;17.50;99.90
43858;DHT22;29507;51.284;5.758;2023-07-31T15:19:18;17.50;99.90
43858;DHT22;29507;51.284;5.758;2023-07-31T15:21:44;17.50;99.90
43858;DHT22;29507;51.284;5.758;2023-07-31T15:24:10;17.50;99.90
43858;DHT22;29507;51.284;5.758;2023-07-31T15:26:37;17.50;99.90
43858;DHT22;29507;51.284;5.758;2023-07-31T15:29:05;17.60;99.90
43858;DHT22;29507;51.284;5.758;2023-07-31T15:31:35;17.60;99.90
43858;DHT22;29507;51.284;5.758;2023-07-31T15:34:01;17.60;99.90
43858;DHT22;29507;51.284;5.758;2023-07-31T15:36:27;17.60;99.90
43858;DHT22;29507;51.284;5.758;2023-07-31T15:38:52;17.60;99.90